createdAt,value
2017-05-07T00:02:06.612Z,13.60
2017-05-07T00:04:34.928Z,13.60
2017-05-07T00:07:03.208Z,13.60
2017-05-07T00:09:32.244Z,13.60
2017-05-07T00:12:00.520Z,13.60
2017-05-07T00:14:28.800Z,13.60
2017-05-07T00:16:57.093Z,13.50
2017-05-07T00:19:25.378Z,13.50
2017-05-07T00:21:53.671Z,13.50
2017-05-07T00:24:21.948Z,13.50
2017-05-07T00:26:50.257Z,13.50
2017-05-07T00:29:18.543Z,13.50
2017-05-07T00:31:46.824Z,13.50
2017-05-07T00:34:15.126Z,13.50
2017-05-07T00:36:43.405Z,13.50
2017-05-07T00:39:11.702Z,13.50
2017-05-07T00:41:39.981Z,13.50
2017-05-07T00:44:08.940Z,13.50
2017-05-07T00:46:37.604Z,13.50
2017-05-07T00:49:06.248Z,13.50
2017-05-07T00:51:34.523Z,13.50
2017-05-07T00:54:02.824Z,13.50
2017-05-07T00:56:31.104Z,13.50
2017-05-07T00:58:59.760Z,13.50
2017-05-07T01:01:28.036Z,13.50
2017-05-07T01:03:56.370Z,13.50
2017-05-07T01:06:24.676Z,13.50
2017-05-07T01:08:52.960Z,13.50
2017-05-07T01:11:21.258Z,13.50
2017-05-07T01:13:50.275Z,13.50
2017-05-07T01:16:18.571Z,13.50
2017-05-07T01:18:46.852Z,13.50
2017-05-07T01:21:15.148Z,13.50
2017-05-07T01:23:43.425Z,13.50
2017-05-07T01:26:11.713Z,13.60
2017-05-07T01:28:40.017Z,13.50
2017-05-07T01:31:08.297Z,13.50
2017-05-07T01:33:36.592Z,13.50
2017-05-07T01:36:04.873Z,13.50
2017-05-07T01:38:33.183Z,13.50
2017-05-07T01:41:01.460Z,13.60
2017-05-07T01:43:29.737Z,13.50
2017-05-07T01:45:58.035Z,13.50
2017-05-07T01:48:27.053Z,13.50
2017-05-07T01:50:55.351Z,13.50
2017-05-07T01:53:23.627Z,13.40
2017-05-07T01:55:51.909Z,13.40
2017-05-07T01:58:20.236Z,13.50
2017-05-07T02:00:49.256Z,13.50
2017-05-07T02:03:17.553Z,13.50
2017-05-07T02:05:45.835Z,13.50
2017-05-07T02:08:14.129Z,13.50
2017-05-07T02:10:42.403Z,13.50
2017-05-07T02:13:10.708Z,13.50
2017-05-07T02:15:39.723Z,13.50
2017-05-07T02:18:08.665Z,13.50
2017-05-07T02:20:36.969Z,13.50
2017-05-07T02:23:05.984Z,13.50
2017-05-07T02:25:34.276Z,13.50
2017-05-07T02:28:02.557Z,13.50
2017-05-07T02:30:30.864Z,13.50
2017-05-07T02:32:59.140Z,13.50
2017-05-07T02:35:27.424Z,13.50
2017-05-07T02:37:55.716Z,13.50
2017-05-07T02:40:24.737Z,13.50
2017-05-07T02:42:53.456Z,13.50
2017-05-07T02:45:21.741Z,13.60
2017-05-07T02:47:50.036Z,13.50
2017-05-07T02:50:19.060Z,13.50
2017-05-07T02:52:47.356Z,13.50
2017-05-07T02:55:15.628Z,13.50
2017-05-07T02:57:43.923Z,13.50
2017-05-07T03:00:12.204Z,13.50
2017-05-07T03:02:40.514Z,13.50
2017-05-07T03:05:09.532Z,13.50
2017-05-07T03:07:37.811Z,13.50
2017-05-07T03:10:06.105Z,13.40
2017-05-07T03:12:34.393Z,13.50
2017-05-07T03:15:02.689Z,13.50
2017-05-07T03:17:30.968Z,13.50
2017-05-07T03:19:59.279Z,13.50
2017-05-07T03:22:28.297Z,13.50
2017-05-07T03:24:56.572Z,13.50
2017-05-07T03:27:24.884Z,13.40
2017-05-07T03:29:53.726Z,13.40
2017-05-07T03:32:22.020Z,13.40
2017-05-07T03:34:50.299Z,13.40
2017-05-07T03:37:18.596Z,13.40
2017-05-07T03:39:46.877Z,13.40
2017-05-07T03:42:15.172Z,13.40
2017-05-07T03:44:43.448Z,13.40
2017-05-07T03:47:11.760Z,13.40
2017-05-07T03:49:40.039Z,13.40
2017-05-07T03:52:08.317Z,13.40
2017-05-07T03:54:36.621Z,13.30
2017-05-07T03:57:04.899Z,13.40
2017-05-07T03:59:33.208Z,13.30
2017-05-07T04:02:01.483Z,13.30
2017-05-07T04:04:29.784Z,13.30
2017-05-07T04:06:58.068Z,13.30
2017-05-07T04:09:26.353Z,13.40
2017-05-07T04:11:54.649Z,13.40
2017-05-07T04:14:22.928Z,13.30
2017-05-07T04:16:51.229Z,13.30
2017-05-07T04:19:19.503Z,13.40
2017-05-07T04:21:47.809Z,13.40
2017-05-07T04:24:16.825Z,13.30
2017-05-07T04:26:45.108Z,13.40
2017-05-07T04:29:13.400Z,13.40
2017-05-07T04:31:41.679Z,13.40
2017-05-07T04:34:09.972Z,13.40
2017-05-07T04:36:38.841Z,13.40
2017-05-07T04:39:07.132Z,13.40
2017-05-07T04:41:35.410Z,13.30
2017-05-07T04:44:03.713Z,13.40
2017-05-07T04:46:33.101Z,13.40
2017-05-07T04:49:01.412Z,13.40
2017-05-07T04:51:30.261Z,13.40
2017-05-07T04:53:58.540Z,13.40
2017-05-07T04:56:26.836Z,13.40
2017-05-07T04:58:55.859Z,13.30
2017-05-07T05:01:24.152Z,13.40
2017-05-07T05:03:52.436Z,13.40
2017-05-07T05:06:20.767Z,13.30
2017-05-07T05:08:49.047Z,13.40
2017-05-07T05:11:17.328Z,13.40
2017-05-07T05:13:45.619Z,13.40
2017-05-07T05:16:13.900Z,13.40
2017-05-07T05:18:42.200Z,13.40
2017-05-07T05:21:16.098Z,13.40
2017-05-07T05:24:00.116Z,13.40
2017-05-07T05:26:29.094Z,13.40
2017-05-07T05:29:19.044Z,13.40
2017-05-07T05:31:54.139Z,13.30
2017-05-07T05:34:22.431Z,13.30
2017-05-07T05:36:50.708Z,13.40
2017-05-07T05:39:19.007Z,13.40
2017-05-07T05:41:47.288Z,13.40
2017-05-07T05:44:15.573Z,13.40
2017-05-07T05:46:44.618Z,13.40
2017-05-07T05:49:12.904Z,13.40
2017-05-07T05:51:41.217Z,13.50
2017-05-07T05:54:10.240Z,13.40
2017-05-07T05:56:38.589Z,13.50
2017-05-07T05:59:07.608Z,13.50
2017-05-07T06:01:36.048Z,13.60
2017-05-07T06:04:04.345Z,13.60
2017-05-07T06:06:33.368Z,13.60
2017-05-07T06:09:01.669Z,13.60
2017-05-07T06:11:29.946Z,13.60
2017-05-07T06:13:58.240Z,13.70
2017-05-07T06:16:26.519Z,13.70
2017-05-07T06:18:54.885Z,13.70
2017-05-07T06:21:23.164Z,13.60
2017-05-07T06:23:51.532Z,13.60
2017-05-07T06:26:19.819Z,13.70
2017-05-07T06:28:48.095Z,13.80
2017-05-07T06:31:16.392Z,13.80
2017-05-07T06:33:44.675Z,13.90
2017-05-07T06:36:14.686Z,13.80
2017-05-07T06:38:42.965Z,13.90
2017-05-07T06:41:12.279Z,13.90
2017-05-07T06:43:41.300Z,13.90
2017-05-07T06:46:09.576Z,13.90
2017-05-07T06:48:37.871Z,13.90
2017-05-07T06:51:06.145Z,14.00
2017-05-07T06:53:34.452Z,13.90
2017-05-07T06:56:03.100Z,13.90
2017-05-07T06:58:31.392Z,13.90
2017-05-07T07:00:59.680Z,13.90
2017-05-07T07:03:27.996Z,13.90
2017-05-07T07:05:56.722Z,13.90
2017-05-07T07:08:25.020Z,13.90
2017-05-07T07:10:53.320Z,13.90
2017-05-07T07:13:22.336Z,13.90
2017-05-07T07:15:51.095Z,13.90
2017-05-07T07:18:20.676Z,13.90
2017-05-07T07:20:48.983Z,13.90
2017-05-07T07:23:18.004Z,14.00
2017-05-07T07:25:46.284Z,14.00
2017-05-07T07:28:14.585Z,14.00
2017-05-07T07:30:42.864Z,14.00
2017-05-07T07:33:11.157Z,14.00
2017-05-07T07:35:39.435Z,14.00
2017-05-07T07:38:07.727Z,14.00
2017-05-07T07:40:36.756Z,14.00
2017-05-07T07:43:05.064Z,14.00
2017-05-07T07:45:33.343Z,14.10
2017-05-07T07:48:01.625Z,14.10
2017-05-07T07:50:29.920Z,14.10
2017-05-07T07:52:58.943Z,14.10
2017-05-07T07:55:27.240Z,14.00
2017-05-07T07:57:55.524Z,14.10
2017-05-07T08:00:23.822Z,14.10
2017-05-07T08:02:52.099Z,14.10
2017-05-07T08:05:20.375Z,14.10
2017-05-07T08:07:48.675Z,14.10
2017-05-07T08:10:17.704Z,14.10
2017-05-07T08:12:46.002Z,14.10
2017-05-07T08:15:14.280Z,14.20
2017-05-07T08:17:42.575Z,14.20
2017-05-07T08:20:10.852Z,14.20
2017-05-07T08:22:39.215Z,14.20
2017-05-07T08:25:07.492Z,14.30
2017-05-07T08:27:35.768Z,14.30
2017-05-07T08:30:04.063Z,14.40
2017-05-07T08:32:32.343Z,14.50
2017-05-07T08:35:00.644Z,14.60
2017-05-07T08:37:28.928Z,14.80
2017-05-07T08:39:57.247Z,14.90
2017-05-07T08:42:25.529Z,15.00
2017-05-07T08:44:53.806Z,15.00
2017-05-07T08:47:22.099Z,15.00
2017-05-07T08:49:50.379Z,14.80
2017-05-07T08:52:19.418Z,14.80
2017-05-07T08:54:47.696Z,14.90
2017-05-07T08:57:15.989Z,15.10
2017-05-07T08:59:44.266Z,15.10
2017-05-07T09:02:12.587Z,15.20
2017-05-07T09:04:41.613Z,15.20
2017-05-07T09:07:09.894Z,15.20
2017-05-07T09:09:38.192Z,15.20
2017-05-07T09:12:24.248Z,15.20
2017-05-07T09:15:07.425Z,15.20
2017-05-07T09:17:45.252Z,15.20
2017-05-07T09:20:14.287Z,15.00
2017-05-07T09:22:42.563Z,15.00
2017-05-07T09:25:10.860Z,14.90
2017-05-07T09:27:39.140Z,14.80
2017-05-07T09:30:07.448Z,14.70
2017-05-07T09:32:36.469Z,14.70
2017-05-07T09:35:04.752Z,14.60
2017-05-07T09:37:33.048Z,14.50
2017-05-07T09:40:01.327Z,14.50
2017-05-07T09:42:29.620Z,14.50
2017-05-07T09:44:57.898Z,14.50
2017-05-07T09:47:26.204Z,14.50
2017-05-07T09:49:54.486Z,14.40
2017-05-07T09:52:22.779Z,14.50
2017-05-07T09:54:51.055Z,14.50
2017-05-07T09:57:19.364Z,14.60
2017-05-07T09:59:47.639Z,14.70
2017-05-07T10:02:15.928Z,14.70
2017-05-07T10:04:44.219Z,14.70
2017-05-07T10:07:13.235Z,14.70
2017-05-07T10:09:41.541Z,14.60
2017-05-07T10:12:09.820Z,14.50
2017-05-07T10:14:38.100Z,14.50
2017-05-07T10:17:06.391Z,14.50
2017-05-07T10:19:34.672Z,14.50
2017-05-07T10:22:02.984Z,14.50
2017-05-07T10:24:32.001Z,14.50
2017-05-07T10:27:00.688Z,14.40
2017-05-07T10:29:28.980Z,14.40
2017-05-07T10:31:57.262Z,14.40
2017-05-07T10:34:25.560Z,14.40
2017-05-07T10:36:53.856Z,14.40
2017-05-07T10:39:22.172Z,14.40
2017-05-07T10:41:50.451Z,14.50
2017-05-07T10:44:18.746Z,14.50
2017-05-07T10:46:47.045Z,14.60
2017-05-07T10:49:15.329Z,14.60
2017-05-07T10:51:43.623Z,14.70
2017-05-07T10:54:12.185Z,14.70
2017-05-07T10:56:40.492Z,14.70
2017-05-07T10:59:08.777Z,14.70
2017-05-07T11:01:37.056Z,14.60
2017-05-07T11:04:05.360Z,14.60
2017-05-07T11:06:33.644Z,14.70
2017-05-07T11:09:02.699Z,14.60
2017-05-07T11:11:30.975Z,14.70
2017-05-07T11:13:59.271Z,14.60
2017-05-07T11:16:27.553Z,14.60
2017-05-07T11:18:55.846Z,14.60
2017-05-07T11:21:24.120Z,14.70
2017-05-07T11:23:52.431Z,14.70
2017-05-07T11:26:21.447Z,14.80
2017-05-07T11:28:49.745Z,14.90
2017-05-07T11:31:18.039Z,14.90
2017-05-07T11:33:46.310Z,14.90
2017-05-07T11:36:14.603Z,14.80
2017-05-07T11:38:42.887Z,14.70
2017-05-07T11:41:11.194Z,14.80
2017-05-07T11:43:39.483Z,14.70
2017-05-07T11:46:07.796Z,14.70
2017-05-07T11:48:36.100Z,14.70
2017-05-07T11:51:05.123Z,14.70
2017-05-07T11:53:33.415Z,14.70
2017-05-07T11:56:01.692Z,14.70
2017-05-07T11:58:29.987Z,14.70
2017-05-07T12:00:58.267Z,14.70
2017-05-07T12:03:26.563Z,14.60
2017-05-07T12:05:54.909Z,14.50
2017-05-07T12:08:23.209Z,14.40
2017-05-07T12:10:51.491Z,14.40
2017-05-07T12:13:19.802Z,14.50
2017-05-07T12:15:48.079Z,14.50
2017-05-07T12:18:16.359Z,14.50
2017-05-07T12:20:44.656Z,14.50
2017-05-07T12:23:12.933Z,14.50
2017-05-07T12:25:41.224Z,14.60
2017-05-07T12:28:09.505Z,14.50
2017-05-07T12:30:37.816Z,14.60
2017-05-07T12:33:06.889Z,14.60
2017-05-07T12:35:35.174Z,14.60
2017-05-07T12:38:03.466Z,14.60
2017-05-07T12:40:32.516Z,14.70
2017-05-07T12:43:00.825Z,14.70
2017-05-07T12:45:29.876Z,14.70
2017-05-07T12:47:58.175Z,14.70
2017-05-07T12:50:26.472Z,14.70
2017-05-07T12:52:55.519Z,14.60
2017-05-07T12:55:23.804Z,14.70
2017-05-07T12:57:52.103Z,14.60
2017-05-07T13:00:20.379Z,14.70
2017-05-07T13:02:48.665Z,14.60
2017-05-07T13:05:17.702Z,14.60
2017-05-07T13:07:45.980Z,14.60
2017-05-07T13:10:14.292Z,14.60
2017-05-07T13:12:42.571Z,14.60
2017-05-07T13:15:10.877Z,14.70
2017-05-07T13:17:39.899Z,14.70
2017-05-07T13:20:08.177Z,14.60
2017-05-07T13:22:36.468Z,14.70
2017-05-07T13:25:04.753Z,14.70
2017-05-07T13:27:33.052Z,14.80
2017-05-07T13:30:01.328Z,14.80
2017-05-07T13:32:29.619Z,14.90
2017-05-07T13:34:58.643Z,14.80
2017-05-07T13:37:26.940Z,14.80
2017-05-07T13:39:55.220Z,14.80
2017-05-07T13:42:23.535Z,14.80
2017-05-07T13:44:51.820Z,14.80
2017-05-07T13:47:20.840Z,14.90
2017-05-07T13:49:49.134Z,15.00
2017-05-07T13:52:17.415Z,15.20
2017-05-07T13:54:45.712Z,15.20
2017-05-07T13:57:13.996Z,15.30
2017-05-07T13:59:42.308Z,15.30
2017-05-07T14:02:10.586Z,15.20
2017-05-07T14:04:38.859Z,15.00
2017-05-07T14:07:07.151Z,15.00
2017-05-07T14:09:35.431Z,14.90
2017-05-07T14:12:03.724Z,14.90
2017-05-07T14:14:32.013Z,14.80
2017-05-07T14:17:00.332Z,14.80
2017-05-07T14:19:29.352Z,14.80
2017-05-07T14:21:58.212Z,14.90
2017-05-07T14:24:27.253Z,15.00
2017-05-07T14:26:55.532Z,15.10
2017-05-07T14:29:23.828Z,15.10
2017-05-07T14:31:52.108Z,15.10
2017-05-07T14:34:20.407Z,15.10
2017-05-07T14:36:49.432Z,15.00
2017-05-07T14:39:17.748Z,15.00
2017-05-07T14:41:46.390Z,15.00
2017-05-07T14:44:14.672Z,14.90
2017-05-07T14:46:43.073Z,14.90
2017-05-07T14:49:11.352Z,14.90
2017-05-07T14:51:39.656Z,14.90
2017-05-07T14:54:07.931Z,14.90
2017-05-07T14:56:36.236Z,14.90
2017-05-07T14:59:04.528Z,14.90
2017-05-07T15:01:32.811Z,14.90
2017-05-07T15:04:01.112Z,15.00
2017-05-07T15:06:29.394Z,15.00
2017-05-07T15:08:57.691Z,15.00
2017-05-07T15:11:25.973Z,15.00
2017-05-07T15:13:55.007Z,15.10
2017-05-07T15:16:23.292Z,15.20
2017-05-07T15:18:51.588Z,15.20
2017-05-07T15:21:19.867Z,15.20
2017-05-07T15:23:48.168Z,15.20
2017-05-07T15:26:17.195Z,15.20
2017-05-07T15:28:45.484Z,15.20
2017-05-07T15:31:13.784Z,15.20
2017-05-07T15:33:42.063Z,15.20
2017-05-07T15:36:10.374Z,15.20
2017-05-07T15:38:38.667Z,15.20
2017-05-07T15:41:06.985Z,15.10
2017-05-07T15:43:35.264Z,15.20
2017-05-07T15:46:03.539Z,15.20
2017-05-07T15:48:31.832Z,15.10
2017-05-07T15:51:00.112Z,15.10
2017-05-07T15:53:28.412Z,15.10
2017-05-07T15:55:57.432Z,15.00
2017-05-07T15:58:25.735Z,15.00
2017-05-07T16:00:54.017Z,15.00
2017-05-07T16:03:22.312Z,14.90
2017-05-07T16:05:50.651Z,14.90
2017-05-07T16:08:18.930Z,14.90
2017-05-07T16:10:47.223Z,14.90
2017-05-07T16:13:15.504Z,14.90
2017-05-07T16:15:43.808Z,14.90
2017-05-07T16:24:48.811Z,14.70
2017-05-07T16:27:34.587Z,14.60
2017-05-07T16:30:03.613Z,14.60
2017-05-07T16:32:34.598Z,14.60
2017-05-07T16:35:03.644Z,14.60
2017-05-07T16:37:31.931Z,14.60
2017-05-07T16:40:00.203Z,14.50
2017-05-07T16:42:28.495Z,14.50
2017-05-07T16:44:57.624Z,14.50
2017-05-07T16:47:26.664Z,14.50
2017-05-07T16:49:54.947Z,14.50
2017-05-07T16:52:23.240Z,14.50
2017-05-07T16:54:51.520Z,14.50
2017-05-07T16:57:19.825Z,14.50
2017-05-07T16:59:48.112Z,14.50
2017-05-07T17:02:16.387Z,14.50
2017-05-07T17:04:44.683Z,14.50
2017-05-07T17:07:18.601Z,14.40
2017-05-07T17:09:46.895Z,14.50
2017-05-07T17:12:15.176Z,14.50
2017-05-07T17:14:43.475Z,14.50
2017-05-07T17:17:12.493Z,14.50
2017-05-07T17:19:40.771Z,14.40
2017-05-07T17:22:09.065Z,14.40
2017-05-07T17:24:37.340Z,14.40
2017-05-07T17:27:05.632Z,14.50
2017-05-07T17:29:33.911Z,14.40
2017-05-07T17:32:02.217Z,14.40
2017-05-07T17:34:30.496Z,14.30
2017-05-07T17:36:58.772Z,14.30
2017-05-07T17:39:27.807Z,14.30
2017-05-07T17:41:56.080Z,14.30
2017-05-07T17:44:24.372Z,14.30
2017-05-07T17:46:52.653Z,14.20
2017-05-07T17:49:20.961Z,14.20
2017-05-07T17:51:49.309Z,14.20
2017-05-07T17:54:17.616Z,14.20
2017-05-07T17:56:45.901Z,14.20
2017-05-07T17:59:15.283Z,14.20
2017-05-07T18:01:43.951Z,14.20
2017-05-07T18:04:12.332Z,14.20
2017-05-07T18:06:40.657Z,14.20
2017-05-07T18:09:09.675Z,14.20
2017-05-07T18:11:37.972Z,14.30
2017-05-07T18:14:06.253Z,14.20
2017-05-07T18:16:34.529Z,14.20
2017-05-07T18:19:02.828Z,14.20
2017-05-07T18:21:31.106Z,14.20
2017-05-07T18:23:59.406Z,14.20
2017-05-07T18:26:28.591Z,14.20
2017-05-07T18:28:57.634Z,14.10
2017-05-07T18:31:25.923Z,14.20
2017-05-07T18:33:54.220Z,14.20
2017-05-07T18:36:22.504Z,14.10
2017-05-07T18:38:50.793Z,14.20
2017-05-07T18:41:19.828Z,14.10
2017-05-07T18:43:48.105Z,14.10
2017-05-07T18:46:16.411Z,14.10
2017-05-07T18:48:44.699Z,14.10
2017-05-07T18:51:12.979Z,14.10
2017-05-07T18:53:41.276Z,14.10
2017-05-07T18:56:10.300Z,14.10
2017-05-07T18:58:38.591Z,14.10
2017-05-07T19:01:06.875Z,14.10
2017-05-07T19:03:35.171Z,14.10
2017-05-07T19:06:03.459Z,14.10
2017-05-07T19:08:32.499Z,14.10
2017-05-07T19:11:00.775Z,14.10
2017-05-07T19:13:29.058Z,14.10
2017-05-07T19:15:57.824Z,14.00
2017-05-07T19:18:26.116Z,14.10
2017-05-07T19:20:54.419Z,14.00
2017-05-07T19:23:22.699Z,14.00
2017-05-07T19:25:51.001Z,14.00
2017-05-07T19:28:20.019Z,13.90
2017-05-07T19:30:48.300Z,13.90
2017-05-07T19:33:16.596Z,13.90
2017-05-07T19:35:44.882Z,13.90
2017-05-07T19:38:13.184Z,13.90
2017-05-07T19:40:41.466Z,13.90
2017-05-07T19:43:10.512Z,13.80
2017-05-07T19:45:38.793Z,13.80
2017-05-07T19:48:07.072Z,13.70
2017-05-07T19:50:35.376Z,13.60
2017-05-07T19:53:03.656Z,13.60
2017-05-07T19:55:31.959Z,13.60
2017-05-07T19:58:00.243Z,13.50
2017-05-07T20:00:28.548Z,13.50
2017-05-07T20:02:56.829Z,13.50
2017-05-07T20:05:25.116Z,13.40
2017-05-07T20:07:53.412Z,13.30
2017-05-07T20:10:21.687Z,13.30
2017-05-07T20:12:49.984Z,13.30
2017-05-07T20:15:19.009Z,13.20
2017-05-07T20:17:47.315Z,13.20
2017-05-07T20:20:15.596Z,13.20
2017-05-07T20:22:43.872Z,13.20
2017-05-07T20:25:12.445Z,13.20
2017-05-07T20:27:40.735Z,13.20
2017-05-07T20:30:09.036Z,13.20
2017-05-07T20:32:38.083Z,13.20
2017-05-07T20:35:06.401Z,13.20
2017-05-07T20:37:35.423Z,13.10
2017-05-07T20:40:03.703Z,13.10
2017-05-07T20:42:32.009Z,13.00
2017-05-07T20:45:00.287Z,13.00
2017-05-07T20:47:28.588Z,13.00
2017-05-07T20:49:56.868Z,13.00
2017-05-07T20:52:25.168Z,12.90
2017-05-07T20:54:53.456Z,12.90
2017-05-07T20:57:21.778Z,12.80
2017-05-07T20:59:50.066Z,12.80
2017-05-07T21:02:18.347Z,12.70
2017-05-07T21:04:46.656Z,12.70
2017-05-07T21:07:14.971Z,12.70
2017-05-07T21:09:43.264Z,12.60
2017-05-07T21:12:11.548Z,12.60
2017-05-07T21:14:39.860Z,12.60
2017-05-07T21:17:08.147Z,12.50
2017-05-07T21:19:36.432Z,12.60
2017-05-07T21:22:04.829Z,12.50
2017-05-07T21:24:33.121Z,12.50
2017-05-07T21:27:01.424Z,12.50
2017-05-07T21:29:30.454Z,12.50
2017-05-07T21:31:58.771Z,12.40
2017-05-07T21:34:27.056Z,12.50
2017-05-07T21:36:55.339Z,12.40
2017-05-07T21:39:24.388Z,12.50
2017-05-07T21:41:52.672Z,12.40
2017-05-07T21:44:20.972Z,12.40
2017-05-07T21:46:49.258Z,12.40
2017-05-07T21:49:17.560Z,12.40
2017-05-07T21:51:45.851Z,12.40
2017-05-07T21:54:14.156Z,12.40
2017-05-07T21:56:42.446Z,12.40
2017-05-07T21:59:10.756Z,12.40
2017-05-07T22:01:39.064Z,12.40
2017-05-07T22:04:07.348Z,12.30
2017-05-07T22:06:35.659Z,12.40
2017-05-07T22:09:03.952Z,12.40
2017-05-07T22:11:33.000Z,12.30
2017-05-07T22:14:01.292Z,12.30
2017-05-07T22:16:30.631Z,12.30
2017-05-07T22:18:58.947Z,12.30
2017-05-07T22:21:27.240Z,12.30
2017-05-07T22:23:55.544Z,12.20
2017-05-07T22:26:24.576Z,12.20
2017-05-07T22:28:52.880Z,12.20
2017-05-07T22:31:21.168Z,12.20
2017-05-07T22:33:49.471Z,12.20
2017-05-07T22:36:18.504Z,12.20
2017-05-07T22:38:46.845Z,12.20
2017-05-07T22:41:15.875Z,12.20
2017-05-07T22:43:44.162Z,12.20
2017-05-07T22:46:12.468Z,12.10
2017-05-07T22:48:40.762Z,12.20
2017-05-07T22:51:09.808Z,12.20
2017-05-07T22:53:38.102Z,12.20
2017-05-07T22:56:06.422Z,12.20
2017-05-07T22:58:35.463Z,12.20
2017-05-07T23:01:03.752Z,12.20
2017-05-07T23:03:32.064Z,12.20
2017-05-07T23:06:01.097Z,12.20
2017-05-07T23:08:29.396Z,12.20
2017-05-07T23:10:57.684Z,12.20
2017-05-07T23:13:25.992Z,12.20
2017-05-07T23:15:54.280Z,12.20
2017-05-07T23:18:22.593Z,12.20
2017-05-07T23:20:50.881Z,12.20
2017-05-07T23:23:19.177Z,12.20
2017-05-07T23:25:48.224Z,12.20
2017-05-07T23:28:16.516Z,12.20
2017-05-07T23:30:44.832Z,12.20
2017-05-07T23:33:13.871Z,12.10
2017-05-07T23:35:42.187Z,12.20
2017-05-07T23:38:10.484Z,12.20
2017-05-07T23:40:39.516Z,12.20
2017-05-07T23:43:07.820Z,12.10
2017-05-07T23:45:36.113Z,12.10
2017-05-07T23:48:04.416Z,12.10
2017-05-07T23:50:32.704Z,12.10
2017-05-07T23:53:01.032Z,12.10
2017-05-07T23:55:29.325Z,12.10
2017-05-07T23:57:58.359Z,12.10
